KTPATNCM

Guest
Details From KTPA - Tampa Intl
To TNCM - St Maarten - Princess Juliana Intl
Flight Number -
Tags Generated
Created
Modified
Stats Distance 1,226 nm / 2,270 km
Max Altitude 0 ft / 0 m
Waypoints 5
Social Downloads 5
Likes 0
Share VATSIM

Download

Looking for another format? Having issues loading an existing format? Contact us
Advertisement - Login to hide

Notes

Generated

Route

KTPA LAUTH BURGO PJM31 TNCM

ID Type Via Altitude Latitude Longitude Leg Dist Tot Dist Heading (true) Name
O KTPA APT - 0 ft / 0 m 27.97083˚ -82.53608˚ - 0 nm - -
LAUTH FIX - 0 ft / 0 m 26.12666˚ -78.34300˚ 250 nm 250 nm 115° / 117° -
BURGO FIX - 0 ft / 0 m 24.41667˚ -74.56553˚ 229 nm 479 nm 116° / 117° -
PJM31 FIX - 0 ft / 0 m 18.10698˚ -63.21744˚ 739 nm 1218 nm 119° / 123° -
O TNCM APT - 0 ft / 0 m 18.03937˚ -63.11961˚ 6 nm 1225 nm 126° / 126° -

Altitude Profile

Advertisement - Login to hide

Weather


0- 5 10 15 20 25 30 35+ Temperature / ° C

Clouds and Precipitation
Forecast for 2018-05-23 18:00 UTC. Updated 43 minutes ago

Ground ~20,000 ft ~40,000 ft Winds

KTPA

Details ICAO KTPA (TPA)
Name TAMPA INTL
Region United States
Timezone America/New_York (UTC-4.0)
Stats Elevation 26 ft / 8 m (AMSL)
Location 27.974892° -82.531898°
Runways 3
Magnetic Variation 5.600° W

METAR

KTPA 231753Z 24008KT 10SM SCT049 BKN250 29/21 A3008 RMK AO2 SLP184 T02940211 10300 20239 58015

Decode

TAF

KTPA 231746Z 2318/2424 22007KT P6SM SCT040 SCT110 BKN250 FM232000 28008KT P6SM VCTS SCT035CB BKN050 BKN250 FM240200 VRB03KT P6SM SCT030 SCT100 BKN250 FM241400 15006KT P6SM SCT020 BKN050 FM241900 24006KT P6SM VCTS SCT035CB BKN050

Decode

Departure Runways

ID Width Length Bearing (true) Bearing (mag) Surface Threshold Offset Overrun Length
01L 150 ft / 46 m 11,042 ft / 3,366 m 1.72° 7.32° Concrete 0 ft / 0 m 0 ft / 0 m
01R 150 ft / 46 m 8,330 ft / 2,539 m 1.72° 7.32° Asphalt 0 ft / 0 m 0 ft / 0 m
09 150 ft / 46 m 6,987 ft / 2,130 m 91.74° 97.34° Asphalt 0 ft / 0 m 0 ft / 0 m
19L 150 ft / 46 m 8,330 ft / 2,539 m 181.73° 187.33° Asphalt 0 ft / 0 m 0 ft / 0 m
19R 150 ft / 46 m 11,042 ft / 3,366 m 181.72° 187.32° Concrete 0 ft / 0 m 0 ft / 0 m
27 150 ft / 46 m 6,987 ft / 2,130 m 271.75° 277.35° Asphalt 0 ft / 0 m 0 ft / 0 m

TNCM

Details ICAO TNCM (SXM)
Name St Maarten - Princess Juliana Intl
Region Caribbean Netherlands, Aruba, Curaçao, Sint Maarten
Timezone Unknown (UTC+0.0)
Stats Elevation 12 ft / 4 m (AMSL)
Location 18.040889° -63.108974°
Runways 1
Magnetic Variation 14.337° W

METAR

TNCM 231800Z 08011KT 040V130 9999 BKN020 29/22 Q1018 NOSIG RMK A3007

Decode

TAF

TAF TNCM 231733Z 2318/2418 09012KT P6SM SCT020

Decode

Destination Runways

ID Width Length Bearing (true) Bearing (mag) Surface Threshold Offset Overrun Length
10 148 ft / 45 m 7,464 ft / 2,275 m 81.43° 95.77° Asphalt 0 ft / 0 m 151 ft / 46 m
28 148 ft / 45 m 7,464 ft / 2,275 m 261.44° 275.78° Asphalt 397 ft / 121 m 0 ft / 0 m

Popular Alternatives